Time;durP1;ratioP1;P1;durP2;ratioP2;P2;SDS_P1;SDS_P2;PMS_P1;PMS_P2;Temp;Humidity;BMP_temperature;BMP_pressure;BME280_temperature;BME280_humidity;BME280_pressure;Samples;Min_cycle;Max_cycle;Signal;HPM_P1;HPM_P2
2020/12/02 00:04:31;;;;;;;0.87;0.87;;;11.60;99.90;;;;;;10328861;28;20562;-69
2020/12/02 00:09:34;;;;;;;4.50;0.60;;;11.60;99.90;;;;;;10323771;28;20212;-69
2020/12/02 00:14:36;;;;;;;1.90;0.97;;;11.60;99.90;;;;;;10324210;28;20202;-70
2020/12/02 00:19:40;;;;;;;1.27;0.90;;;11.60;99.90;;;;;;10324201;28;20231;-70
2020/12/02 00:24:43;;;;;;;0.90;0.90;;;11.60;99.90;;;;;;10323711;28;20191;-69
2020/12/02 00:29:46;;;;;;;0.27;0.23;;;11.60;99.90;;;;;;10324258;28;20249;-68
2020/12/02 00:34:53;;;;;;;5.20;1.03;;;11.60;99.90;;;;;;10323650;28;20200;-70
2020/12/02 00:39:58;;;;;;;1.70;0.93;;;11.50;99.90;;;;;;10323005;28;20254;-70
2020/12/02 00:45:01;;;;;;;1.07;0.60;;;11.30;99.90;;;;;;10323626;28;20262;-70
2020/12/02 00:50:09;;;;;;;0.40;0.40;;;11.20;99.90;;;;;;10323633;28;20727;-70
2020/12/02 00:55:11;;;;;;;0.47;0.47;;;11.20;99.90;;;;;;10307683;28;20202;-69
2020/12/02 01:00:15;;;;;;;0.97;0.87;;;11.30;99.90;;;;;;10351895;22;20292;-77
2020/12/02 01:05:19;;;;;;;0.33;0.33;;;11.30;99.90;;;;;;10407873;28;20610;-78
2020/12/02 01:10:22;;;;;;;1.87;0.93;;;11.30;99.90;;;;;;10443760;28;20546;-79
2020/12/02 01:15:24;;;;;;;0.70;0.67;;;11.30;99.90;;;;;;10444274;28;20204;-77
2020/12/02 01:20:27;;;;;;;0.23;0.17;;;11.30;99.90;;;;;;10417979;28;20222;-79
2020/12/02 01:25:30;;;;;;;0.50;0.50;;;11.40;99.90;;;;;;10404569;28;20273;-85
2020/12/02 01:30:34;;;;;;;4.53;0.57;;;11.40;99.90;;;;;;10406475;28;20212;-86
2020/12/02 01:35:37;;;;;;;0.47;0.47;;;11.50;99.90;;;;;;10405428;28;20202;-86
2020/12/02 01:40:40;;;;;;;1.43;1.33;;;11.50;99.90;;;;;;10426954;28;20225;-87
2020/12/02 01:45:45;;;;;;;1.37;1.27;;;11.60;99.90;;;;;;10398138;28;20290;-88
2020/12/02 01:50:54;;;;;;;0.60;0.43;;;11.50;99.90;;;;;;10413818;28;20614;-86
2020/12/02 01:56:00;;;;;;;0.77;0.73;;;11.20;99.90;;;;;;10412015;28;20228;-84
2020/12/02 02:01:09;;;;;;;0.50;0.47;;;11.00;99.90;;;;;;10417849;22;20279;-69
2020/12/02 02:06:16;;;;;;;0.27;0.27;;;10.90;99.90;;;;;;10370733;28;20206;-69
2020/12/02 02:11:22;;;;;;;0.50;0.50;;;10.90;99.90;;;;;;10370864;28;20197;-69
2020/12/02 02:16:28;;;;;;;1.87;0.87;;;10.80;99.90;;;;;;10370135;28;20198;-69
2020/12/02 02:21:34;;;;;;;0.33;0.33;;;10.90;99.90;;;;;;10397720;28;20313;-69
2020/12/02 02:26:40;;;;;;;0.37;0.37;;;10.90;99.90;;;;;;10409283;28;20190;-68
2020/12/02 02:31:50;;;;;;;1.43;0.70;;;10.80;99.90;;;;;;10403510;28;20703;-69
2020/12/02 02:36:53;;;;;;;1.07;0.87;;;10.70;99.90;;;;;;10368648;28;20211;-69
2020/12/02 02:41:58;;;;;;;0.97;0.60;;;10.60;99.90;;;;;;10369160;28;20199;-70
2020/12/02 02:47:01;;;;;;;2.97;1.17;;;10.80;99.90;;;;;;10367261;28;20201;-69
2020/12/02 02:52:04;;;;;;;1.63;1.53;;;10.80;99.90;;;;;;10368296;28;20195;-69
2020/12/02 02:57:07;;;;;;;0.70;0.40;;;10.80;99.90;;;;;;10368203;28;20605;-70
2020/12/02 03:02:12;;;;;;;0.60;0.50;;;10.90;99.90;;;;;;10384700;22;20652;-78
2020/12/02 03:07:17;;;;;;;0.50;0.47;;;11.00;99.90;;;;;;10368285;28;20376;-84
2020/12/02 03:12:21;;;;;;;0.30;0.30;;;11.00;99.90;;;;;;10408448;28;20881;-83
2020/12/02 03:17:25;;;;;;;1.83;1.60;;;10.80;99.90;;;;;;10407765;28;20226;-80
2020/12/02 03:22:28;;;;;;;0.83;0.23;;;10.60;99.90;;;;;;10406967;28;20206;-81
2020/12/02 03:27:32;;;;;;;0.20;0.10;;;10.50;99.90;;;;;;10406922;28;20667;-80
2020/12/02 03:32:34;;;;;;;0.57;0.53;;;10.50;99.90;;;;;;10377181;28;20195;-80
2020/12/02 03:37:37;;;;;;;0.23;0.23;;;10.50;99.90;;;;;;10365571;28;20235;-81
2020/12/02 03:42:41;;;;;;;1.03;0.60;;;10.50;99.90;;;;;;10387038;28;20553;-81
2020/12/02 03:47:43;;;;;;;0.30;0.23;;;10.40;99.90;;;;;;10406379;28;20701;-82
2020/12/02 03:52:46;;;;;;;0.20;0.10;;;10.30;99.90;;;;;;10367918;28;20195;-83
2020/12/02 03:57:49;;;;;;;0.20;0.03;;;10.20;99.90;;;;;;10395963;28;20230;-83
2020/12/02 04:02:52;;;;;;;1.40;1.00;;;10.30;99.90;;;;;;10388847;23;20245;-70
2020/12/02 04:07:55;;;;;;;0.43;0.43;;;10.40;99.90;;;;;;10366109;28;20286;-69
2020/12/02 04:12:58;;;;;;;0.50;0.50;;;10.40;99.90;;;;;;10391161;28;20204;-69
2020/12/02 04:18:01;;;;;;;1.10;0.97;;;10.50;99.90;;;;;;10404061;28;20737;-68
2020/12/02 04:23:03;;;;;;;1.43;1.10;;;10.50;99.90;;;;;;10404448;28;20273;-69
2020/12/02 04:28:07;;;;;;;0.63;0.60;;;10.40;99.90;;;;;;10403557;28;20312;-70
2020/12/02 04:33:10;;;;;;;0.20;0.20;;;10.40;99.90;;;;;;10387770;28;20364;-69
2020/12/02 04:38:13;;;;;;;1.03;0.37;;;10.40;99.90;;;;;;10363904;28;20234;-70
2020/12/02 04:43:24;;;;;;;0.30;0.30;;;10.50;99.90;;;;;;10347706;28;20194;-69
2020/12/02 04:48:30;;;;;;;0.63;0.60;;;10.30;99.90;;;;;;10404029;28;20224;-69
2020/12/02 04:53:35;;;;;;;1.27;0.73;;;10.30;99.90;;;;;;10403629;28;20281;-70
2020/12/02 04:58:40;;;;;;;0.43;0.40;;;10.20;99.90;;;;;;10403968;28;20229;-70
2020/12/02 05:03:55;;;;;;;1.90;0.97;;;10.10;99.90;;;;;;10398474;28;20222;-70
2020/12/02 05:09:11;;;;;;;1.30;1.00;;;10.00;99.90;;;;;;10346420;28;20198;-68
2020/12/02 05:14:15;;;;;;;1.27;0.63;;;9.90;99.90;;;;;;10364241;28;20291;-70
2020/12/02 05:19:21;;;;;;;0.87;0.50;;;10.00;99.90;;;;;;10356148;28;20222;-70
2020/12/02 05:24:24;;;;;;;1.00;0.97;;;9.90;99.90;;;;;;10364158;28;20201;-69
2020/12/02 05:29:37;;;;;;;4.97;1.03;;;10.00;99.90;;;;;;10370793;28;20209;-69
2020/12/02 05:34:40;;;;;;;2.17;1.13;;;9.90;99.90;;;;;;10370451;28;20193;-69
2020/12/02 05:39:48;;;;;;;0.30;0.30;;;9.80;99.90;;;;;;10371417;28;20233;-69
2020/12/02 05:45:01;;;;;;;0.53;0.53;;;9.70;99.90;;;;;;10405450;28;20232;-69
2020/12/02 05:50:07;;;;;;;0.60;0.50;;;9.60;99.90;;;;;;10375563;28;20202;-69
2020/12/02 05:55:17;;;;;;;1.60;1.00;;;9.50;99.90;;;;;;10370500;28;20608;-69
2020/12/02 06:00:20;;;;;;;0.23;0.23;;;9.40;99.90;;;;;;10370196;28;20245;-67
2020/12/02 06:05:24;;;;;;;0.20;0.20;;;9.50;99.90;;;;;;10380459;28;20216;-68
2020/12/02 06:10:35;;;;;;;0.50;0.30;;;9.60;99.90;;;;;;10408240;28;20202;-70
2020/12/02 06:15:39;;;;;;;0.60;0.60;;;9.50;99.90;;;;;;10408789;28;20206;-68
2020/12/02 06:20:45;;;;;;;0.83;0.83;;;9.50;99.90;;;;;;10408081;28;20220;-70
2020/12/02 06:25:51;;;;;;;0.20;0.10;;;9.70;99.90;;;;;;10407026;28;20571;-69
2020/12/02 06:30:58;;;;;;;0.30;0.30;;;9.50;99.90;;;;;;10406826;28;20285;-70
2020/12/02 06:36:14;;;;;;;0.57;0.57;;;9.40;99.90;;;;;;10367736;28;20714;-70
2020/12/02 06:41:38;;;;;;;0.87;0.83;;;9.20;99.90;;;;;;10404876;28;20644;-69
2020/12/02 06:47:08;;;;;;;0.47;0.47;;;9.40;99.90;;;;;;10406914;28;20194;-69
2020/12/02 06:52:21;;;;;;;0.20;0.10;;;9.50;99.90;;;;;;10388318;28;20206;-67
2020/12/02 06:57:26;;;;;;;0.30;0.30;;;9.40;99.90;;;;;;10405923;28;20202;-70
2020/12/02 07:02:40;;;;;;;1.50;0.97;;;9.20;99.90;;;;;;10405197;28;20581;-69
2020/12/02 07:07:43;;;;;;;1.13;0.67;;;9.20;99.90;;;;;;10384094;28;20195;-71
2020/12/02 07:12:46;;;;;;;0.57;0.57;;;9.20;99.90;;;;;;10366018;28;20191;-70
2020/12/02 07:17:49;;;;;;;0.30;0.30;;;9.20;99.90;;;;;;10364929;28;20288;-70
2020/12/02 07:22:55;;;;;;;1.23;0.87;;;9.30;99.90;;;;;;10365607;28;20209;-70
2020/12/02 07:27:58;;;;;;;0.20;0.10;;;9.30;99.90;;;;;;10394537;28;20201;-74
2020/12/02 07:33:24;;;;;;;3.27;1.33;;;9.20;99.90;;;;;;10379956;28;20195;-72
2020/12/02 07:38:27;;;;;;;2.10;0.77;;;9.30;99.90;;;;;;10349828;28;20229;-72
2020/12/02 07:43:30;;;;;;;0.20;0.17;;;9.40;99.90;;;;;;10359874;28;20203;-71
2020/12/02 07:48:33;;;;;;;0.50;0.50;;;9.40;99.90;;;;;;10366143;28;20198;-72
2020/12/02 07:53:43;;;;;;;0.20;0.20;;;9.40;99.90;;;;;;10366000;28;20530;-74
2020/12/02 07:58:47;;;;;;;0.47;0.47;;;9.50;99.90;;;;;;10389092;28;20295;-71
2020/12/02 08:03:51;;;;;;;0.20;0.10;;;9.50;99.90;;;;;;10383856;28;20763;-70
2020/12/02 08:08:53;;;;;;;0.20;0.10;;;9.90;99.90;;;;;;10386877;28;20575;-70
2020/12/02 08:13:58;;;;;;;0.20;0.00;;;10.10;99.90;;;;;;10364209;28;20205;-70
2020/12/02 08:19:01;;;;;;;0.27;0.27;;;10.30;99.90;;;;;;10402106;28;20297;-72
2020/12/02 08:24:21;;;;;;;0.70;0.63;;;10.40;99.90;;;;;;10402197;28;20190;-71
2020/12/02 08:29:38;;;;;;;1.07;0.50;;;10.60;99.90;;;;;;10341665;28;20203;-71
2020/12/02 08:34:41;;;;;;;0.37;0.30;;;10.70;99.90;;;;;;10357392;28;20277;-71
2020/12/02 08:39:46;;;;;;;0.73;0.73;;;10.80;99.90;;;;;;10362885;28;20222;-73
2020/12/02 08:45:06;;;;;;;0.50;0.30;;;10.90;99.90;;;;;;10363884;28;20218;-71
2020/12/02 08:50:20;;;;;;;0.20;0.10;;;11.20;99.90;;;;;;10362743;28;20209;-71
2020/12/02 08:55:23;;;;;;;0.77;0.57;;;11.40;99.90;;;;;;10363034;28;20462;-71
2020/12/02 09:00:27;;;;;;;0.20;0.20;;;11.50;99.90;;;;;;10363730;28;20240;-71
2020/12/02 09:05:31;;;;;;;0.23;0.17;;;11.80;99.90;;;;;;10370005;28;20874;-70
2020/12/02 09:10:34;;;;;;;2.93;0.77;;;11.90;99.90;;;;;;10382099;28;20199;-73
2020/12/02 09:15:38;;;;;;;0.97;0.50;;;12.10;99.90;;;;;;10353733;28;20606;-69
2020/12/02 09:20:40;;;;;;;0.20;0.13;;;12.40;99.90;;;;;;10370681;28;20738;-70
2020/12/02 09:25:43;;;;;;;0.20;0.03;;;12.60;99.90;;;;;;10370363;28;20731;-71
2020/12/02 09:30:47;;;;;;;0.20;0.10;;;13.10;99.90;;;;;;10385884;28;20226;-70
2020/12/02 09:35:49;;;;;;;0.97;0.30;;;13.30;99.90;;;;;;10415980;28;20253;-73
2020/12/02 09:40:52;;;;;;;0.20;0.10;;;13.60;99.90;;;;;;10417800;28;20686;-70
2020/12/02 09:46:03;;;;;;;0.40;0.40;;;13.60;99.90;;;;;;10406115;28;20237;-69
2020/12/02 09:51:15;;;;;;;0.20;0.10;;;13.60;99.90;;;;;;10367819;28;20282;-70
2020/12/02 09:56:19;;;;;;;0.97;0.80;;;13.90;99.90;;;;;;10373362;28;20198;-70
2020/12/02 10:01:29;;;;;;;0.60;0.47;;;13.80;99.90;;;;;;10368910;28;20241;-69
2020/12/02 10:06:53;;;;;;;1.00;0.93;;;13.60;99.90;;;;;;10368464;28;20294;-68
2020/12/02 10:12:06;;;;;;;1.03;0.93;;;13.50;99.90;;;;;;10403269;28;20198;-70
2020/12/02 10:17:26;;;;;;;3.90;1.53;;;13.30;99.90;;;;;;10406894;28;20277;-70
2020/12/02 10:22:45;;;;;;;2.20;1.50;;;13.60;99.90;;;;;;10406210;28;20236;-69
2020/12/02 10:28:14;;;;;;;1.17;1.00;;;13.70;99.90;;;;;;10389137;28;20616;-70
2020/12/02 10:33:49;;;;;;;2.53;1.50;;;13.90;99.90;;;;;;10406959;28;20217;-68
2020/12/02 10:38:54;;;;;;;0.87;0.87;;;14.00;99.90;;;;;;10406709;28;20313;-70
2020/12/02 10:44:14;;;;;;;1.73;1.10;;;14.10;99.90;;;;;;10406902;28;20539;-71
2020/12/02 10:49:24;;;;;;;1.83;1.10;;;14.20;99.90;;;;;;10406203;28;20190;-71
2020/12/02 10:54:32;;;;;;;1.20;1.00;;;14.40;99.90;;;;;;10402650;28;20799;-71
2020/12/02 10:59:35;;;;;;;0.47;0.40;;;14.60;99.90;;;;;;10367461;28;20857;-67
2020/12/02 11:04:39;;;;;;;1.20;0.77;;;14.80;99.90;;;;;;10368496;28;20195;-71
2020/12/02 11:09:52;;;;;;;1.67;1.57;;;15.40;99.90;;;;;;10405927;28;20204;-68
2020/12/02 11:15:03;;;;;;;5.10;1.87;;;15.30;99.90;;;;;;10386718;28;20278;-70
2020/12/02 11:20:10;;;;;;;0.23;0.17;;;15.60;99.90;;;;;;10375411;28;20211;-68
2020/12/02 11:25:17;;;;;;;0.60;0.43;;;15.60;99.90;;;;;;10370595;28;20203;-67
2020/12/02 11:30:24;;;;;;;0.80;0.80;;;15.70;99.90;;;;;;10366487;28;20306;-68
2020/12/02 11:35:53;;;;;;;1.43;0.77;;;15.40;99.90;;;;;;10365337;28;20561;-68
2020/12/02 11:41:05;;;;;;;0.40;0.33;;;15.20;99.90;;;;;;10361831;28;20275;-70
2020/12/02 11:46:09;;;;;;;3.40;0.57;;;14.90;99.90;;;;;;10363350;28;20226;-70
2020/12/02 11:51:20;;;;;;;0.50;0.30;;;14.70;99.90;;;;;;10364153;28;20201;-71
2020/12/02 11:56:25;;;;;;;1.67;0.70;;;14.60;99.90;;;;;;10347862;28;20640;-71
2020/12/02 12:01:45;;;;;;;0.40;0.40;;;14.20;99.90;;;;;;10364880;28;20620;-71
2020/12/02 12:06:52;;;;;;;0.53;0.47;;;14.50;99.90;;;;;;10363088;28;20664;-70
2020/12/02 12:12:02;;;;;;;2.17;0.70;;;14.40;99.90;;;;;;10366527;28;20199;-70
2020/12/02 12:17:11;;;;;;;0.80;0.40;;;14.20;99.90;;;;;;10363048;28;20674;-71
2020/12/02 12:22:32;;;;;;;1.23;0.90;;;14.20;99.90;;;;;;10362501;28;20261;-70
2020/12/02 12:27:35;;;;;;;0.60;0.50;;;14.40;99.90;;;;;;10356240;28;20202;-69
2020/12/02 12:32:44;;;;;;;0.20;0.17;;;14.70;99.90;;;;;;10361624;28;20278;-70
2020/12/02 12:37:58;;;;;;;1.43;0.77;;;15.40;99.90;;;;;;10361329;28;20209;-70
2020/12/02 12:43:05;;;;;;;0.87;0.83;;;15.00;99.90;;;;;;10362641;28;20219;-70
2020/12/02 12:48:11;;;;;;;2.00;0.70;;;15.90;99.90;;;;;;10361705;28;20602;-70
2020/12/02 12:53:16;;;;;;;1.67;0.93;;;15.50;99.90;;;;;;10344112;28;20209;-72
2020/12/02 12:58:19;;;;;;;1.57;1.23;;;14.70;99.90;;;;;;10360564;28;20222;-69
2020/12/02 13:03:24;;;;;;;0.43;0.43;;;15.00;99.90;;;;;;10361087;28;20780;-70
2020/12/02 13:08:37;;;;;;;1.03;0.73;;;14.80;99.90;;;;;;10361754;28;20562;-70
2020/12/02 13:13:53;;;;;;;0.23;0.23;;;15.20;99.90;;;;;;10343474;28;20289;-70
2020/12/02 13:19:13;;;;;;;0.70;0.70;;;15.00;99.90;;;;;;10355726;28;20226;-70
2020/12/02 13:24:35;;;;;;;1.70;0.43;;;14.70;99.90;;;;;;10355045;28;20202;-70
2020/12/02 13:29:40;;;;;;;1.10;0.83;;;14.70;99.90;;;;;;10356229;28;20202;-70
2020/12/02 13:34:43;;;;;;;0.70;0.70;;;14.80;99.90;;;;;;10358931;28;20266;-69
2020/12/02 13:39:47;;;;;;;0.50;0.50;;;14.90;99.90;;;;;;10362263;28;20226;-71
2020/12/02 13:44:56;;;;;;;0.97;0.53;;;14.70;99.90;;;;;;10392866;28;20200;-70
2020/12/02 13:50:00;;;;;;;8.40;0.60;;;15.00;99.90;;;;;;10406994;28;20244;-72
2020/12/02 13:55:11;;;;;;;0.73;0.57;;;15.40;99.90;;;;;;10407101;28;20194;-70
2020/12/02 14:00:26;;;;;;;1.60;1.20;;;16.40;99.90;;;;;;10375135;28;20242;-70
2020/12/02 14:05:36;;;;;;;4.80;1.87;;;16.70;99.90;;;;;;10369991;28;20206;-69
2020/12/02 14:10:40;;;;;;;0.23;0.23;;;17.20;99.90;;;;;;10408439;28;20202;-69
2020/12/02 14:15:43;;;;;;;1.90;0.83;;;17.20;99.90;;;;;;10408305;28;20217;-72
2020/12/02 14:20:46;;;;;;;9.57;2.23;;;17.40;99.90;;;;;;10406909;28;20260;-70
2020/12/02 14:25:54;;;;;;;1.83;1.20;;;17.90;99.90;;;;;;10408779;28;20670;-72
2020/12/02 14:30:56;;;;;;;0.93;0.60;;;18.40;99.90;;;;;;10407991;28;20285;-69
2020/12/02 14:35:59;;;;;;;1.07;0.97;;;17.60;99.90;;;;;;10407418;28;20608;-70
2020/12/02 14:41:09;;;;;;;1.17;0.70;;;16.70;99.90;;;;;;10407611;28;20230;-72
2020/12/02 14:46:12;;;;;;;0.60;0.57;;;15.80;99.90;;;;;;10337280;28;20674;-71
2020/12/02 14:51:16;;;;;;;0.90;0.90;;;15.70;99.90;;;;;;10368005;28;20218;-71
2020/12/02 14:56:28;;;;;;;1.23;0.97;;;15.60;99.90;;;;;;10367744;28;20179;-71
2020/12/02 15:01:31;;;;;;;0.33;0.30;;;16.10;99.90;;;;;;10364926;28;20328;-72
2020/12/02 15:06:53;;;;;;;3.60;2.20;;;16.70;99.90;;;;;;10353443;28;20194;-71
2020/12/02 15:12:00;;;;;;;1.13;1.03;;;16.90;99.90;;;;;;10369472;28;20191;-70
2020/12/02 15:17:06;;;;;;;1.57;0.63;;;17.10;99.90;;;;;;10365791;28;20195;-70
2020/12/02 15:22:11;;;;;;;1.43;0.63;;;17.10;99.90;;;;;;10399251;28;20694;-71
2020/12/02 15:27:19;;;;;;;0.60;0.60;;;17.00;99.90;;;;;;10404772;28;20190;-72
2020/12/02 15:32:24;;;;;;;7.50;0.97;;;17.20;99.90;;;;;;10405076;28;20214;-69
2020/12/02 15:37:39;;;;;;;2.00;1.63;;;16.30;99.90;;;;;;10404326;28;20659;-71
2020/12/02 15:43:03;;;;;;;0.67;0.67;;;15.90;99.90;;;;;;10404469;28;20232;-73
2020/12/02 15:48:09;;;;;;;0.53;0.27;;;15.30;99.90;;;;;;10377364;28;20191;-71
2020/12/02 15:53:23;;;;;;;0.63;0.63;;;14.30;99.90;;;;;;10342165;28;20337;-70
2020/12/02 15:59:03;;;;;;;0.30;0.30;;;13.80;99.90;;;;;;10381430;28;20287;-71
2020/12/02 16:04:17;;;;;;;2.40;0.40;;;13.70;99.90;;;;;;10366527;28;20246;-68
2020/12/02 16:09:20;;;;;;;1.60;0.83;;;13.30;99.90;;;;;;10362272;28;20211;-72
2020/12/02 16:14:23;;;;;;;0.80;0.53;;;13.50;99.90;;;;;;10363771;28;20904;-71
2020/12/02 16:19:26;;;;;;;1.20;1.13;;;13.30;99.90;;;;;;10362560;28;20309;-72
2020/12/02 16:24:29;;;;;;;0.73;0.73;;;13.20;99.90;;;;;;10402577;28;20539;-71
2020/12/02 16:29:32;;;;;;;4.33;1.53;;;13.10;99.90;;;;;;10402691;28;20511;-71
2020/12/02 16:34:35;;;;;;;2.37;1.10;;;12.60;99.90;;;;;;10401107;28;20200;-73
2020/12/02 16:39:38;;;;;;;1.13;0.50;;;12.50;99.90;;;;;;10363418;28;20264;-72
2020/12/02 16:44:45;;;;;;;0.30;0.30;;;12.30;99.90;;;;;;10363276;28;20307;-72
2020/12/02 16:50:02;;;;;;;0.33;0.30;;;12.20;99.90;;;;;;10361511;28;20195;-70
2020/12/02 16:55:33;;;;;;;3.13;1.40;;;12.20;99.90;;;;;;10361213;28;20252;-69
2020/12/02 17:00:38;;;;;;;5.97;1.77;;;12.00;99.90;;;;;;10335433;28;20237;-70
2020/12/02 17:05:43;;;;;;;0.87;0.77;;;11.90;99.90;;;;;;10375637;28;20704;-71
2020/12/02 17:10:47;;;;;;;1.33;1.23;;;11.70;99.90;;;;;;10361753;28;20205;-70
2020/12/02 17:16:03;;;;;;;1.53;1.13;;;11.50;99.90;;;;;;10375978;28;20750;-70
2020/12/02 17:21:20;;;;;;;1.23;0.43;;;11.60;99.90;;;;;;10399275;28;20252;-71
2020/12/02 17:26:30;;;;;;;4.90;1.30;;;11.50;99.90;;;;;;10407674;28;20647;-72
2020/12/02 17:32:05;;;;;;;1.83;1.47;;;11.30;99.90;;;;;;10407323;28;20194;-69
2020/12/02 17:37:19;;;;;;;1.37;1.27;;;11.10;99.90;;;;;;10379387;28;20195;-69
2020/12/02 17:42:30;;;;;;;1.30;1.20;;;11.10;99.90;;;;;;10407377;28;20230;-72
2020/12/02 17:47:41;;;;;;;1.13;0.90;;;11.00;99.90;;;;;;10361134;28;20193;-71
2020/12/02 17:53:13;;;;;;;4.83;1.93;;;11.00;99.90;;;;;;10374020;28;20190;-75
2020/12/02 17:58:47;;;;;;;1.93;0.50;;;11.10;99.90;;;;;;10363521;28;20193;-73
2020/12/02 18:04:03;;;;;;;0.53;0.50;;;11.20;99.90;;;;;;10349901;28;20710;-73
2020/12/02 18:09:24;;;;;;;0.80;0.80;;;11.10;99.90;;;;;;10367292;28;20198;-74
2020/12/02 18:14:55;;;;;;;2.77;1.37;;;10.90;99.90;;;;;;10359127;28;20275;-72
2020/12/02 18:20:08;;;;;;;4.23;1.57;;;10.90;99.90;;;;;;10362223;28;20713;-73
2020/12/02 18:25:36;;;;;;;0.60;0.60;;;10.80;99.90;;;;;;10367390;28;20205;-72
2020/12/02 18:30:51;;;;;;;0.70;0.43;;;10.60;99.90;;;;;;10362667;28;20234;-73
2020/12/02 18:36:02;;;;;;;0.30;0.30;;;10.50;99.90;;;;;;10347214;28;20297;-72
2020/12/02 18:41:18;;;;;;;3.10;1.20;;;10.50;99.90;;;;;;10382743;28;20324;-71
2020/12/02 18:46:38;;;;;;;0.90;0.90;;;10.50;99.90;;;;;;10376178;28;20285;-72
2020/12/02 18:51:41;;;;;;;1.00;0.97;;;10.40;99.90;;;;;;10352445;28;20311;-72
2020/12/02 18:57:06;;;;;;;0.87;0.87;;;10.40;99.90;;;;;;10371271;28;20559;-72
2020/12/02 19:02:16;;;;;;;1.27;0.70;;;10.50;99.90;;;;;;10371872;28;20317;-71
2020/12/02 19:07:24;;;;;;;1.10;0.70;;;10.40;99.90;;;;;;10369248;28;20230;-72
2020/12/02 19:12:34;;;;;;;1.23;1.13;;;10.30;99.90;;;;;;10351514;28;20206;-73
2020/12/02 19:18:04;;;;;;;0.40;0.33;;;10.10;99.90;;;;;;10370108;28;20226;-72
2020/12/02 19:23:40;;;;;;;2.13;1.23;;;10.20;99.90;;;;;;10378620;28;20230;-72
2020/12/02 19:29:04;;;;;;;3.57;1.03;;;10.20;99.90;;;;;;10370298;28;20554;-72
2020/12/02 19:34:21;;;;;;;0.97;0.97;;;9.90;99.90;;;;;;10365120;28;20195;-71
2020/12/02 19:39:40;;;;;;;1.27;1.17;;;9.70;99.90;;;;;;10374141;28;20292;-70
2020/12/02 19:44:56;;;;;;;2.20;2.00;;;9.60;99.90;;;;;;10364129;28;20286;-72
2020/12/02 19:49:59;;;;;;;1.07;0.97;;;9.50;99.90;;;;;;10365158;28;20566;-71
2020/12/02 19:55:02;;;;;;;0.40;0.40;;;9.50;99.90;;;;;;10368124;28;20203;-73
2020/12/02 20:00:09;;;;;;;5.50;0.93;;;9.40;99.90;;;;;;10363423;28;20767;-72
2020/12/02 20:05:39;;;;;;;2.30;1.80;;;9.20;99.90;;;;;;10366179;28;20692;-72
2020/12/02 20:10:48;;;;;;;1.90;1.73;;;9.20;99.90;;;;;;10364279;28;20614;-73
2020/12/02 20:15:59;;;;;;;1.20;1.07;;;9.20;99.90;;;;;;10368124;28;20226;-74
2020/12/02 20:21:07;;;;;;;5.30;1.60;;;9.20;99.90;;;;;;10380882;28;20223;-72
2020/12/02 20:26:16;;;;;;;0.57;0.57;;;9.20;99.90;;;;;;10381295;28;20249;-74
2020/12/02 20:31:19;;;;;;;3.07;1.67;;;9.20;99.90;;;;;;10374840;28;20194;-72
2020/12/02 20:36:22;;;;;;;1.20;1.10;;;9.30;99.90;;;;;;10384662;28;20636;-72
2020/12/02 20:41:26;;;;;;;1.80;1.27;;;9.30;99.90;;;;;;10389154;28;20226;-71
2020/12/02 20:46:33;;;;;;;1.23;0.70;;;9.20;99.90;;;;;;10383574;28;20194;-72
2020/12/02 20:51:45;;;;;;;7.50;3.20;;;9.20;99.90;;;;;;10395834;28;20191;-72
2020/12/02 20:56:49;;;;;;;1.00;1.00;;;9.10;99.90;;;;;;10362257;28;20274;-72
2020/12/02 21:01:57;;;;;;;0.20;0.20;;;9.10;99.90;;;;;;10362050;28;20234;-74
2020/12/02 21:07:00;;;;;;;0.30;0.30;;;8.80;99.90;;;;;;10388222;28;20210;-72
2020/12/02 21:12:04;;;;;;;2.27;0.97;;;8.80;99.90;;;;;;10394791;28;20968;-73
2020/12/02 21:17:18;;;;;;;1.03;0.93;;;8.80;99.90;;;;;;10370600;28;20669;-73
2020/12/02 21:22:35;;;;;;;1.27;1.17;;;8.80;99.90;;;;;;10368923;28;20346;-74
2020/12/02 21:27:47;;;;;;;3.50;0.97;;;8.80;99.90;;;;;;10364205;28;20199;-73
2020/12/02 21:33:08;;;;;;;2.00;1.13;;;8.90;99.90;;;;;;10377502;28;20190;-74
2020/12/02 21:38:22;;;;;;;1.47;1.13;;;9.10;99.90;;;;;;10363659;28;20221;-76
2020/12/02 21:43:57;;;;;;;0.77;0.77;;;8.80;99.90;;;;;;10363200;28;20329;-73
2020/12/02 21:49:08;;;;;;;2.67;1.17;;;8.70;99.90;;;;;;10356485;28;20205;-73
2020/12/02 21:54:48;;;;;;;0.30;0.30;;;8.60;99.90;;;;;;10363128;28;20203;-73
2020/12/02 21:59:51;;;;;;;0.50;0.40;;;8.90;99.90;;;;;;10353147;28;20241;-74
2020/12/02 22:05:24;;;;;;;1.20;0.70;;;9.10;99.90;;;;;;10390546;28;20241;-74
2020/12/02 22:10:33;;;;;;;1.73;1.03;;;9.10;99.90;;;;;;10404921;28;20240;-74
2020/12/02 22:15:45;;;;;;;1.70;1.30;;;9.00;99.90;;;;;;10408660;28;20198;-73
2020/12/02 22:20:57;;;;;;;0.43;0.33;;;8.90;99.90;;;;;;10401624;28;20241;-72
2020/12/02 22:26:03;;;;;;;0.30;0.30;;;8.80;99.90;;;;;;10408633;28;20271;-73
2020/12/02 22:31:20;;;;;;;1.00;1.00;;;8.70;99.90;;;;;;10407153;28;20225;-73
2020/12/02 22:36:42;;;;;;;0.20;0.20;;;8.60;99.90;;;;;;10369146;28;20211;-74
2020/12/02 22:42:05;;;;;;;0.73;0.60;;;8.60;99.90;;;;;;10368661;28;20244;-73
2020/12/02 22:47:37;;;;;;;0.40;0.40;;;8.50;99.90;;;;;;10368532;28;20285;-73
2020/12/02 22:52:43;;;;;;;1.17;0.30;;;8.30;99.90;;;;;;10361908;28;20206;-73
2020/12/02 22:57:49;;;;;;;0.87;0.77;;;8.20;99.90;;;;;;10368198;28;20556;-74
2020/12/02 23:02:58;;;;;;;0.63;0.40;;;8.10;99.90;;;;;;10385116;28;20268;-73
2020/12/02 23:08:02;;;;;;;0.67;0.67;;;8.10;99.90;;;;;;10373279;28;20293;-73
2020/12/02 23:13:08;;;;;;;0.50;0.50;;;7.90;99.90;;;;;;10406217;28;20201;-72
2020/12/02 23:18:22;;;;;;;1.40;0.93;;;7.90;99.90;;;;;;10406749;28;20194;-73
2020/12/02 23:23:25;;;;;;;0.37;0.37;;;7.80;99.90;;;;;;10405564;28;20222;-73
2020/12/02 23:28:48;;;;;;;1.43;0.73;;;7.80;99.90;;;;;;10406723;28;20666;-73
2020/12/02 23:34:07;;;;;;;0.33;0.33;;;7.90;99.90;;;;;;10382809;28;20277;-74
2020/12/02 23:39:20;;;;;;;4.10;0.93;;;8.00;99.90;;;;;;10349522;28;20573;-73
2020/12/02 23:44:38;;;;;;;4.57;1.53;;;8.00;99.90;;;;;;10366350;28;20579;-73
2020/12/02 23:49:56;;;;;;;0.73;0.73;;;8.00;99.90;;;;;;10365178;28;20277;-72
2020/12/02 23:55:08;;;;;;;0.83;0.83;;;8.00;99.90;;;;;;10366047;28;20221;-72
